Time;durP1;ratioP1;P1;durP2;ratioP2;P2;SDS_P1;SDS_P2;PMS_P1;PMS_P2;Temp;Humidity;BMP_temperature;BMP_pressure;BME280_temperature;BME280_humidity;BME280_pressure;Samples;Min_cycle;Max_cycle;Signal;HPM_P1;HPM_P2
2021/04/24 00:02:18;;;;;;;20.95;16.27;;;17.70;43.90;;;;;;5057762;28;20044;-62
2021/04/24 00:04:44;;;;;;;18.30;16.35;;;17.70;43.80;;;;;;5050339;28;20059;-63
2021/04/24 00:07:11;;;;;;;21.00;16.70;;;17.70;43.70;;;;;;5050953;28;20107;-63
2021/04/24 00:09:37;;;;;;;18.83;17.00;;;17.60;43.90;;;;;;5063564;28;20028;-63
2021/04/24 00:12:05;;;;;;;19.75;16.98;;;17.60;44.00;;;;;;5064098;28;20038;-63
2021/04/24 00:14:30;;;;;;;19.35;16.77;;;17.50;44.00;;;;;;5047066;28;20045;-62
2021/04/24 00:16:56;;;;;;;20.17;16.55;;;17.50;44.30;;;;;;5050224;28;20040;-62
2021/04/24 00:19:22;;;;;;;20.02;17.92;;;17.50;44.10;;;;;;5058790;28;20048;-62
2021/04/24 00:21:48;;;;;;;19.30;17.38;;;17.50;44.20;;;;;;5050766;28;20036;-62
2021/04/24 00:24:13;;;;;;;19.05;17.10;;;17.50;44.20;;;;;;5053063;28;20052;-62
2021/04/24 00:26:39;;;;;;;21.13;17.95;;;17.50;44.20;;;;;;5061258;28;20567;-62
2021/04/24 00:29:05;;;;;;;21.33;16.45;;;17.60;44.30;;;;;;5062031;28;20064;-63
2021/04/24 00:31:31;;;;;;;20.80;17.60;;;17.50;44.20;;;;;;5060098;28;20052;-62
2021/04/24 00:33:57;;;;;;;20.80;18.60;;;17.50;44.30;;;;;;5054615;28;20041;-63
2021/04/24 00:36:23;;;;;;;19.85;17.85;;;17.50;44.30;;;;;;5029011;28;20506;-62
2021/04/24 00:38:49;;;;;;;20.23;18.10;;;17.40;44.60;;;;;;5043483;28;20044;-63
2021/04/24 00:41:15;;;;;;;21.33;18.17;;;17.50;44.50;;;;;;5052060;28;20086;-63
2021/04/24 00:43:40;;;;;;;22.25;18.90;;;17.30;44.50;;;;;;5052069;28;20115;-64
2021/04/24 00:46:15;;;;;;;19.92;17.60;;;17.40;44.60;;;;;;5048336;28;20025;-64
2021/04/24 00:48:41;;;;;;;21.58;19.27;;;17.30;44.90;;;;;;5044111;28;20111;-63
2021/04/24 00:51:08;;;;;;;22.63;18.77;;;17.30;45.00;;;;;;5046381;28;20048;-64
2021/04/24 00:53:35;;;;;;;20.40;18.20;;;17.30;45.10;;;;;;5035595;28;20147;-63
2021/04/24 00:56:01;;;;;;;19.80;17.70;;;17.30;45.10;;;;;;5057526;28;20055;-63
2021/04/24 00:58:27;;;;;;;20.05;17.83;;;17.30;45.00;;;;;;5047601;28;20377;-63
2021/04/24 01:00:53;;;;;;;22.27;18.35;;;17.30;44.90;;;;;;5042590;28;20045;-63
2021/04/24 01:03:19;;;;;;;22.33;18.25;;;17.20;45.00;;;;;;5050011;28;20044;-64
2021/04/24 01:05:45;;;;;;;20.50;18.30;;;17.20;45.10;;;;;;5046265;28;20036;-63
2021/04/24 01:08:11;;;;;;;20.27;17.80;;;17.20;45.20;;;;;;5045653;28;20434;-63
2021/04/24 01:10:39;;;;;;;23.30;18.35;;;17.30;45.10;;;;;;5056542;28;20043;-64
2021/04/24 01:13:06;;;;;;;23.15;17.52;;;17.20;45.30;;;;;;5055694;28;20545;-63
2021/04/24 01:15:32;;;;;;;21.35;18.50;;;17.20;45.30;;;;;;5056655;28;20044;-63
2021/04/24 01:17:58;;;;;;;24.17;18.67;;;17.20;45.30;;;;;;5045997;28;20033;-62
2021/04/24 01:20:24;;;;;;;21.30;18.52;;;17.20;45.30;;;;;;5047318;28;20032;-63
2021/04/24 01:22:51;;;;;;;21.65;17.95;;;17.20;45.30;;;;;;5058797;28;20040;-63
2021/04/24 01:25:23;;;;;;;20.50;18.40;;;17.20;45.40;;;;;;5047300;28;20037;-63
2021/04/24 01:27:54;;;;;;;20.92;18.30;;;17.20;45.40;;;;;;5040321;28;20083;-64
2021/04/24 01:30:25;;;;;;;23.15;18.80;;;17.10;45.20;;;;;;5063724;28;20040;-64
2021/04/24 01:32:52;;;;;;;20.42;18.00;;;17.20;45.30;;;;;;5069992;28;20052;-63
2021/04/24 01:35:21;;;;;;;27.83;18.55;;;17.30;45.30;;;;;;5052939;28;20380;-63
2021/04/24 01:37:47;;;;;;;21.10;18.10;;;17.30;45.20;;;;;;5059706;28;20498;-63
2021/04/24 01:40:15;;;;;;;19.63;17.25;;;17.30;45.00;;;;;;5060972;28;20035;-63
2021/04/24 01:42:42;;;;;;;20.08;17.98;;;17.30;45.10;;;;;;5053531;28;20124;-64
2021/04/24 01:45:09;;;;;;;21.83;18.77;;;17.30;45.00;;;;;;5039426;28;20445;-63
2021/04/24 01:47:36;;;;;;;21.20;17.88;;;17.30;45.00;;;;;;5063147;28;20501;-63
2021/04/24 01:50:27;;;;;;;19.60;17.52;;;17.30;45.10;;;;;;5028405;28;20462;-63
2021/04/24 01:52:54;;;;;;;19.52;16.73;;;17.30;45.10;;;;;;5031028;28;20063;-63
2021/04/24 01:55:23;;;;;;;20.85;17.33;;;17.30;45.20;;;;;;5065140;28;20067;-63
2021/04/24 01:57:50;;;;;;;21.60;17.60;;;17.30;45.20;;;;;;5068197;28;20184;-63
2021/04/24 02:00:30;;;;;;;19.60;17.38;;;17.40;45.00;;;;;;5062963;28;20106;-63
2021/04/24 02:02:58;;;;;;;21.05;18.20;;;17.30;44.80;;;;;;5065508;28;20063;-63
2021/04/24 02:05:24;;;;;;;19.92;17.90;;;17.30;44.70;;;;;;5060782;28;20036;-63
2021/04/24 02:07:57;;;;;;;24.85;17.17;;;17.20;44.80;;;;;;5055040;28;20056;-62
2021/04/24 02:10:24;;;;;;;22.65;17.50;;;17.30;45.20;;;;;;5059374;28;20037;-63
2021/04/24 02:12:50;;;;;;;21.15;18.08;;;17.30;44.90;;;;;;5054820;28;20095;-62
2021/04/24 02:15:16;;;;;;;18.60;16.50;;;17.20;45.00;;;;;;5050260;28;20120;-63
2021/04/24 02:17:42;;;;;;;20.50;17.73;;;17.30;45.20;;;;;;5061303;28;20119;-63
2021/04/24 02:20:09;;;;;;;20.05;17.33;;;17.20;45.20;;;;;;5067362;28;20453;-63
2021/04/24 02:22:34;;;;;;;19.17;17.05;;;17.30;45.20;;;;;;5066005;28;20044;-62
2021/04/24 02:25:02;;;;;;;18.35;16.45;;;17.30;45.30;;;;;;5057107;28;20056;-62
2021/04/24 02:27:28;;;;;;;18.67;16.67;;;17.30;45.20;;;;;;5030632;28;20037;-63
2021/04/24 02:29:55;;;;;;;20.20;17.23;;;17.30;45.20;;;;;;5044180;28;20047;-64
2021/04/24 02:32:24;;;;;;;18.95;16.95;;;17.30;45.50;;;;;;5030409;28;20052;-64
2021/04/24 02:34:50;;;;;;;17.08;15.27;;;17.20;45.50;;;;;;5054990;28;20437;-64
2021/04/24 02:37:17;;;;;;;20.35;16.80;;;17.20;45.50;;;;;;5047563;28;20025;-64
2021/04/24 02:39:45;;;;;;;22.05;16.73;;;17.20;45.40;;;;;;5057290;28;20086;-63
2021/04/24 02:42:19;;;;;;;17.92;15.60;;;17.20;45.50;;;;;;5060388;28;20489;-64
2021/04/24 02:44:45;;;;;;;22.23;16.35;;;17.20;45.80;;;;;;5051192;28;20079;-64
2021/04/24 02:47:11;;;;;;;22.40;15.60;;;17.10;45.80;;;;;;5055373;28;20140;-64
2021/04/24 02:49:38;;;;;;;20.85;17.30;;;17.10;46.00;;;;;;5067539;28;20066;-64
2021/04/24 02:52:05;;;;;;;19.17;17.08;;;17.00;46.00;;;;;;5064287;28;20479;-63
2021/04/24 02:54:32;;;;;;;20.40;17.40;;;17.00;46.00;;;;;;5056640;28;20132;-63
2021/04/24 02:56:58;;;;;;;18.90;16.77;;;17.10;45.90;;;;;;5050234;28;20055;-62
2021/04/24 02:59:24;;;;;;;18.90;16.98;;;17.00;46.00;;;;;;5057087;28;20123;-63
2021/04/24 03:01:50;;;;;;;22.67;17.33;;;17.00;45.90;;;;;;5057845;28;20121;-63
2021/04/24 03:04:16;;;;;;;18.90;17.08;;;17.00;46.00;;;;;;5061956;28;20120;-63
2021/04/24 03:06:43;;;;;;;19.30;16.95;;;16.90;45.90;;;;;;5050111;28;20124;-63
2021/04/24 03:09:08;;;;;;;19.40;17.20;;;16.80;46.30;;;;;;5058978;28;20120;-63
2021/04/24 03:11:35;;;;;;;19.55;17.42;;;16.90;46.50;;;;;;5036603;28;20132;-63
2021/04/24 03:14:01;;;;;;;22.58;17.73;;;16.80;46.80;;;;;;5055048;28;20486;-63
2021/04/24 03:16:27;;;;;;;18.42;16.42;;;16.80;46.50;;;;;;5051301;28;20053;-63
2021/04/24 03:18:55;;;;;;;19.33;16.58;;;16.70;46.70;;;;;;5059904;28;20032;-63
2021/04/24 03:21:22;;;;;;;20.50;18.05;;;16.60;47.10;;;;;;5027030;28;20045;-63
2021/04/24 03:23:47;;;;;;;21.25;17.58;;;16.70;47.00;;;;;;5046072;28;20114;-63
2021/04/24 03:26:14;;;;;;;18.13;16.23;;;16.60;47.20;;;;;;5050241;28;20041;-63
2021/04/24 03:28:40;;;;;;;18.88;16.98;;;16.60;47.40;;;;;;5042858;28;20033;-63
2021/04/24 03:31:05;;;;;;;20.60;16.88;;;16.60;47.50;;;;;;5038357;28;20044;-62
2021/04/24 03:33:31;;;;;;;19.67;17.02;;;16.60;47.70;;;;;;5047127;28;20116;-62
2021/04/24 03:35:57;;;;;;;19.42;16.27;;;16.50;47.70;;;;;;5064212;28;20037;-63
2021/04/24 03:38:22;;;;;;;19.40;17.00;;;16.50;47.50;;;;;;5065985;28;20494;-63
2021/04/24 03:40:48;;;;;;;19.58;16.67;;;16.50;47.70;;;;;;5059655;28;20033;-63
2021/04/24 03:43:14;;;;;;;19.33;16.40;;;16.50;47.60;;;;;;5067331;28;20025;-63
2021/04/24 03:45:39;;;;;;;18.20;16.27;;;16.50;47.60;;;;;;5059150;28;20072;-63
2021/04/24 03:48:06;;;;;;;21.20;17.25;;;16.50;47.40;;;;;;5056701;28;20115;-63
2021/04/24 03:50:31;;;;;;;19.73;17.17;;;16.50;47.40;;;;;;5062777;28;20098;-62
2021/04/24 03:52:57;;;;;;;20.00;16.42;;;16.40;47.50;;;;;;5038748;28;20434;-62
2021/04/24 03:55:23;;;;;;;18.63;16.63;;;16.40;47.50;;;;;;5053310;28;20059;-63
2021/04/24 03:57:51;;;;;;;21.17;17.13;;;16.50;47.60;;;;;;5065268;28;20032;-63
2021/04/24 04:00:19;;;;;;;19.50;16.75;;;16.40;47.80;;;;;;5051160;28;20033;-63
2021/04/24 04:03:00;;;;;;;20.95;16.90;;;16.40;47.90;;;;;;5049360;28;20028;-64
2021/04/24 04:05:28;;;;;;;23.13;17.23;;;16.40;48.70;;;;;;5053097;28;20115;-63
2021/04/24 04:07:55;;;;;;;21.58;16.67;;;16.40;48.30;;;;;;5058746;28;20394;-64
2021/04/24 04:10:21;;;;;;;20.15;17.88;;;16.40;48.20;;;;;;5062365;28;20052;-63
2021/04/24 04:12:47;;;;;;;18.40;16.45;;;16.30;48.40;;;;;;5063685;28;20104;-63
2021/04/24 04:15:14;;;;;;;22.02;16.50;;;16.40;48.50;;;;;;5047525;28;20088;-64
2021/04/24 04:17:40;;;;;;;19.00;15.93;;;16.30;48.30;;;;;;5047294;28;20057;-64
2021/04/24 04:20:09;;;;;;;19.33;16.80;;;16.30;48.10;;;;;;5052652;28;20428;-62
2021/04/24 04:22:36;;;;;;;22.27;16.15;;;16.30;48.20;;;;;;5048282;28;20044;-63
2021/04/24 04:25:02;;;;;;;24.73;16.90;;;16.30;48.10;;;;;;5035140;28;20040;-63
2021/04/24 04:27:28;;;;;;;23.27;17.90;;;16.30;48.20;;;;;;5046179;28;20057;-63
2021/04/24 04:29:54;;;;;;;18.58;16.48;;;16.30;48.20;;;;;;5054767;28;20040;-63
2021/04/24 04:32:19;;;;;;;19.70;15.82;;;16.30;48.30;;;;;;5050138;28;20052;-63
2021/04/24 04:38:07;;;;;;;18.85;15.88;;;16.40;48.30;;;;;;5012675;28;20497;-63
2021/04/24 04:40:33;;;;;;;17.98;15.38;;;16.40;48.20;;;;;;5051711;28;20123;-63
2021/04/24 04:42:59;;;;;;;20.55;17.08;;;16.40;47.90;;;;;;5047785;28;20036;-63
2021/04/24 04:45:25;;;;;;;20.15;16.95;;;16.50;47.80;;;;;;5066014;28;20470;-64
2021/04/24 04:47:51;;;;;;;20.05;16.80;;;16.50;47.80;;;;;;5053229;28;20415;-63
2021/04/24 04:50:20;;;;;;;23.77;17.60;;;16.50;47.90;;;;;;5037517;28;20052;-64
2021/04/24 04:52:46;;;;;;;21.85;17.00;;;16.60;47.90;;;;;;5040575;28;20057;-63
2021/04/24 04:55:12;;;;;;;21.92;17.23;;;16.60;47.70;;;;;;5055655;28;20058;-64
2021/04/24 04:57:39;;;;;;;20.15;16.65;;;16.60;47.80;;;;;;5044612;28;20402;-64
2021/04/24 05:00:10;;;;;;;18.40;15.90;;;16.60;47.60;;;;;;5036007;28;20037;-63
2021/04/24 05:02:36;;;;;;;18.65;16.45;;;16.60;47.50;;;;;;5057856;28;20044;-63
2021/04/24 05:05:02;;;;;;;20.23;17.05;;;16.60;47.30;;;;;;5061060;28;20040;-63
2021/04/24 05:07:28;;;;;;;22.45;16.48;;;16.50;47.40;;;;;;5037695;28;20411;-63
2021/04/24 05:09:53;;;;;;;23.88;17.15;;;16.60;47.60;;;;;;5048323;28;20032;-63
2021/04/24 05:12:19;;;;;;;20.98;15.73;;;16.60;47.30;;;;;;5041932;28;20141;-63
2021/04/24 05:14:45;;;;;;;20.48;16.98;;;16.60;47.20;;;;;;5049468;28;20160;-64
2021/04/24 05:17:10;;;;;;;22.60;16.00;;;16.60;47.30;;;;;;5053023;28;20492;-64
2021/04/24 05:19:36;;;;;;;19.75;16.67;;;16.80;47.30;;;;;;5047604;28;20029;-62
2021/04/24 05:22:02;;;;;;;19.50;16.08;;;16.80;47.10;;;;;;5049867;28;20445;-63
2021/04/24 05:24:28;;;;;;;20.25;16.92;;;16.80;47.00;;;;;;5036681;28;20053;-64
2021/04/24 05:26:54;;;;;;;18.98;15.88;;;16.90;46.90;;;;;;5058984;28;20056;-64
2021/04/24 05:29:19;;;;;;;19.20;16.50;;;16.90;46.90;;;;;;5055609;28;20084;-63
2021/04/24 05:31:45;;;;;;;19.98;16.77;;;16.90;46.80;;;;;;5047131;28;20033;-64
2021/04/24 05:34:11;;;;;;;20.27;16.88;;;17.00;46.70;;;;;;5048677;28;20044;-64
2021/04/24 05:36:36;;;;;;;23.85;17.10;;;17.00;46.50;;;;;;5059302;28;20033;-63
2021/04/24 05:39:04;;;;;;;21.60;16.67;;;17.00;46.70;;;;;;5042026;28;20053;-63
2021/04/24 05:41:29;;;;;;;22.35;16.50;;;17.10;46.50;;;;;;5052872;28;20110;-63
2021/04/24 05:43:57;;;;;;;19.15;17.17;;;17.10;46.50;;;;;;5042798;28;20115;-63
2021/04/24 05:46:24;;;;;;;19.48;17.38;;;17.20;46.30;;;;;;5057051;28;20033;-63
2021/04/24 05:48:50;;;;;;;19.80;17.10;;;17.20;46.10;;;;;;5045475;28;22658;-64
2021/04/24 05:51:16;;;;;;;24.35;18.17;;;17.20;46.20;;;;;;5046577;28;20077;-63
2021/04/24 05:53:43;;;;;;;21.85;18.48;;;17.20;45.90;;;;;;5036445;28;20153;-63
2021/04/24 05:56:09;;;;;;;21.73;17.52;;;17.20;45.90;;;;;;5055179;28;20037;-64
2021/04/24 05:58:37;;;;;;;26.58;17.90;;;17.20;45.70;;;;;;5054928;28;20124;-62
2021/04/24 06:01:03;;;;;;;18.60;16.70;;;17.30;45.80;;;;;;5042059;28;20032;-63
2021/04/24 06:06:51;;;;;;;22.67;17.38;;;17.30;45.40;;;;;;4993386;28;20091;-62
2021/04/24 06:09:16;;;;;;;21.55;18.42;;;17.30;45.40;;;;;;5054619;28;20033;-63
2021/04/24 06:11:42;;;;;;;22.52;18.25;;;17.20;45.30;;;;;;5059127;28;20513;-63
2021/04/24 06:14:08;;;;;;;23.23;18.77;;;17.20;45.30;;;;;;5069312;28;20033;-63
2021/04/24 06:16:33;;;;;;;22.38;17.67;;;17.10;45.70;;;;;;5065676;28;20123;-63
2021/04/24 06:18:59;;;;;;;24.90;18.65;;;17.30;45.90;;;;;;5063063;28;20577;-63
2021/04/24 06:21:25;;;;;;;26.95;18.17;;;17.30;45.60;;;;;;5061026;28;20473;-63
2021/04/24 06:23:51;;;;;;;23.65;18.13;;;17.40;45.40;;;;;;5050279;28;20068;-63
2021/04/24 06:26:17;;;;;;;18.58;16.67;;;17.30;45.40;;;;;;5046288;28;20379;-63
2021/04/24 06:28:43;;;;;;;19.73;16.45;;;17.30;45.50;;;;;;5046367;28;20040;-64
2021/04/24 06:31:09;;;;;;;20.50;16.45;;;17.40;45.30;;;;;;5035655;28;20036;-63
2021/04/24 06:33:35;;;;;;;19.60;16.75;;;17.50;45.20;;;;;;5055348;28;20072;-63
2021/04/24 06:36:02;;;;;;;23.40;17.40;;;17.50;44.90;;;;;;5047913;28;20036;-63
2021/04/24 06:38:27;;;;;;;19.40;17.40;;;17.70;45.00;;;;;;5063972;28;20029;-63
2021/04/24 06:40:53;;;;;;;20.10;17.77;;;17.80;45.00;;;;;;5048665;28;20410;-63
2021/04/24 06:43:19;;;;;;;24.77;18.27;;;17.70;44.80;;;;;;5039822;28;20474;-62
2021/04/24 06:45:44;;;;;;;22.05;18.52;;;17.70;45.00;;;;;;5051393;28;20063;-62
2021/04/24 06:48:10;;;;;;;20.85;16.92;;;17.70;44.70;;;;;;5060394;28;20040;-64
2021/04/24 06:50:36;;;;;;;25.33;17.70;;;17.70;45.00;;;;;;5069409;28;20041;-62
2021/04/24 06:53:03;;;;;;;20.50;18.02;;;17.60;44.70;;;;;;5056071;28;20060;-62
2021/04/24 06:55:29;;;;;;;23.30;17.10;;;17.70;45.00;;;;;;5062742;28;20057;-62
2021/04/24 06:57:55;;;;;;;20.45;17.63;;;17.70;44.80;;;;;;5046681;28;20037;-62
2021/04/24 07:00:21;;;;;;;26.88;18.90;;;17.70;44.90;;;;;;5051678;28;20132;-63
2021/04/24 07:02:46;;;;;;;23.70;18.23;;;17.60;44.90;;;;;;5041894;28;20491;-63
2021/04/24 07:05:14;;;;;;;22.58;18.60;;;17.60;44.90;;;;;;5045606;28;20026;-63
2021/04/24 07:07:41;;;;;;;20.55;18.15;;;17.70;45.00;;;;;;5042025;28;20038;-64
2021/04/24 07:10:09;;;;;;;25.20;17.95;;;17.70;44.70;;;;;;5045790;28;20198;-62
2021/04/24 07:12:35;;;;;;;22.90;17.45;;;17.80;44.70;;;;;;5028228;28;20442;-62
2021/04/24 07:15:01;;;;;;;22.40;16.88;;;17.80;44.60;;;;;;5059746;28;20047;-62
2021/04/24 07:17:27;;;;;;;20.10;16.92;;;18.00;44.40;;;;;;5046716;28;20479;-62
2021/04/24 07:19:53;;;;;;;22.52;16.70;;;18.10;44.70;;;;;;5053166;28;20127;-63
2021/04/24 07:29:03;;;;;;;23.48;17.45;;;18.30;44.80;;;;;;4994773;28;20080;-64
2021/04/24 07:31:29;;;;;;;24.35;18.65;;;18.40;44.50;;;;;;5056907;28;20183;-61
2021/04/24 07:33:54;;;;;;;19.15;17.10;;;18.50;44.20;;;;;;5030067;28;20044;-61
2021/04/24 07:36:20;;;;;;;18.02;16.17;;;18.50;43.90;;;;;;5046666;28;20143;-61
2021/04/24 07:38:46;;;;;;;21.95;19.40;;;18.60;43.60;;;;;;5052126;28;20056;-61
2021/04/24 07:41:12;;;;;;;21.55;17.08;;;18.80;43.40;;;;;;5048065;28;20050;-61
2021/04/24 07:43:38;;;;;;;19.55;17.42;;;18.80;43.20;;;;;;5060878;28;20044;-61
2021/04/24 07:46:04;;;;;;;21.85;18.13;;;19.00;42.60;;;;;;5063631;28;20051;-62
2021/04/24 07:48:31;;;;;;;19.90;16.35;;;19.00;42.50;;;;;;5054860;28;20049;-62
2021/04/24 07:50:57;;;;;;;19.92;15.93;;;19.00;42.60;;;;;;5062488;28;20363;-62
2021/04/24 07:53:22;;;;;;;19.17;16.08;;;19.00;42.50;;;;;;5034354;28;20049;-64
2021/04/24 07:55:48;;;;;;;18.50;16.10;;;19.10;42.20;;;;;;5047083;28;20053;-63
2021/04/24 07:58:14;;;;;;;18.45;15.15;;;19.20;42.30;;;;;;5051174;28;20041;-63
2021/04/24 08:00:40;;;;;;;18.27;16.17;;;19.30;42.10;;;;;;5045585;28;20052;-62
2021/04/24 08:03:05;;;;;;;23.48;16.92;;;19.40;41.70;;;;;;5066686;28;20495;-62
2021/04/24 08:05:31;;;;;;;17.95;15.98;;;19.30;41.40;;;;;;5056275;28;20063;-63
2021/04/24 08:07:58;;;;;;;19.05;17.08;;;19.30;41.40;;;;;;5057416;28;20087;-62
2021/04/24 08:10:24;;;;;;;23.20;17.17;;;19.50;41.50;;;;;;5045583;28;20029;-62
2021/04/24 08:12:49;;;;;;;20.05;17.92;;;19.50;41.10;;;;;;5047673;28;20045;-62
2021/04/24 08:15:16;;;;;;;24.92;18.30;;;19.50;41.30;;;;;;5049519;28;20044;-62
2021/04/24 08:17:42;;;;;;;26.05;19.83;;;19.60;41.50;;;;;;5049669;28;20045;-62
2021/04/24 08:20:10;;;;;;;18.75;16.80;;;19.50;41.40;;;;;;5054809;28;20047;-62
2021/04/24 08:22:35;;;;;;;20.13;18.00;;;19.50;41.60;;;;;;5045472;28;20040;-61
2021/04/24 08:25:04;;;;;;;22.92;18.75;;;19.40;41.20;;;;;;5042516;28;20033;-60
2021/04/24 08:27:29;;;;;;;22.15;16.90;;;19.30;41.40;;;;;;5045878;28;20123;-62
2021/04/24 08:29:55;;;;;;;20.10;18.00;;;19.30;41.40;;;;;;5050057;28;20119;-61
2021/04/24 08:32:21;;;;;;;21.08;17.15;;;19.40;41.20;;;;;;5043777;28;20072;-61
2021/04/24 08:34:46;;;;;;;23.20;17.65;;;19.30;41.30;;;;;;5040720;28;20047;-61
2021/04/24 08:37:12;;;;;;;18.13;16.33;;;19.30;41.20;;;;;;5019494;28;20040;-61
2021/04/24 08:39:38;;;;;;;19.95;17.17;;;19.30;41.50;;;;;;5043136;28;20490;-61
2021/04/24 08:42:05;;;;;;;17.88;15.95;;;19.30;41.40;;;;;;5040730;28;20053;-61
2021/04/24 08:44:32;;;;;;;17.65;15.55;;;19.30;41.00;;;;;;5051161;28;20621;-61
2021/04/24 08:46:58;;;;;;;19.17;16.67;;;19.40;40.70;;;;;;5055816;28;20044;-62
2021/04/24 08:49:25;;;;;;;16.60;14.68;;;19.40;41.10;;;;;;5049094;28;20085;-62
2021/04/24 08:51:51;;;;;;;20.67;16.70;;;19.50;41.20;;;;;;5057393;28;20128;-62
2021/04/24 08:54:18;;;;;;;20.52;15.27;;;19.60;41.00;;;;;;5062448;28;20040;-62
2021/04/24 08:56:44;;;;;;;18.58;16.13;;;19.60;40.60;;;;;;5039678;28;20075;-62
2021/04/24 08:59:10;;;;;;;16.50;13.98;;;19.60;40.50;;;;;;5067649;28;20041;-62
2021/04/24 09:01:36;;;;;;;18.98;15.50;;;19.70;40.30;;;;;;5053753;28;20056;-62
2021/04/24 09:04:02;;;;;;;21.70;16.45;;;19.60;40.20;;;;;;5059606;28;20467;-61
2021/04/24 09:06:29;;;;;;;18.80;16.70;;;19.70;40.50;;;;;;5059956;28;20036;-62
2021/04/24 09:09:10;;;;;;;15.27;13.25;;;19.70;40.80;;;;;;5066403;28;20087;-62
2021/04/24 09:11:57;;;;;;;16.42;14.60;;;19.80;39.80;;;;;;5055595;28;20041;-60
2021/04/24 09:14:26;;;;;;;14.98;13.43;;;19.80;40.10;;;;;;5039968;28;20048;-61
2021/04/24 09:16:53;;;;;;;19.00;15.18;;;19.80;39.50;;;;;;5060346;28;20090;-61
2021/04/24 09:19:31;;;;;;;19.50;16.92;;;19.90;39.10;;;;;;5062780;28;20390;-61
2021/04/24 09:22:32;;;;;;;18.00;16.23;;;19.80;38.80;;;;;;5061182;28;20036;-61
2021/04/24 09:25:03;;;;;;;22.58;17.65;;;20.00;39.40;;;;;;4976453;28;20065;-61
2021/04/24 09:27:47;;;;;;;23.20;20.15;;;20.10;39.40;;;;;;5039141;28;20055;-61
2021/04/24 09:30:19;;;;;;;25.90;21.67;;;20.10;39.20;;;;;;5063958;28;20032;-61
2021/04/24 09:32:47;;;;;;;20.38;18.17;;;20.10;38.80;;;;;;5042644;28;20041;-61
2021/04/24 09:35:20;;;;;;;16.77;15.00;;;20.10;38.80;;;;;;5060946;28;20449;-62
2021/04/24 09:37:55;;;;;;;18.58;13.90;;;20.20;38.80;;;;;;5041811;28;20418;-61
2021/04/24 09:40:21;;;;;;;15.48;12.93;;;20.30;38.80;;;;;;5063728;28;20045;-61
2021/04/24 09:42:47;;;;;;;15.75;13.77;;;20.30;38.40;;;;;;5043245;28;20443;-61
2021/04/24 09:45:30;;;;;;;15.15;13.45;;;21.00;52.60;;;;;;5063072;28;20033;-62
2021/04/24 09:47:59;;;;;;;13.60;12.20;;;20.40;43.60;;;;;;5064671;28;20051;-62
2021/04/24 09:50:30;;;;;;;14.82;12.98;;;20.40;53.40;;;;;;5068766;28;20040;-62
2021/04/24 09:53:17;;;;;;;14.88;13.40;;;20.30;37.60;;;;;;5061961;28;20036;-62
2021/04/24 09:55:44;;;;;;;21.20;15.10;;;20.70;48.10;;;;;;5046335;28;20091;-62
2021/04/24 09:58:31;;;;;;;22.02;16.55;;;20.60;44.80;;;;;;5047662;28;20033;-61
2021/04/24 10:01:26;;;;;;;17.65;14.82;;;20.70;41.60;;;;;;5037118;28;20058;-61
2021/04/24 10:03:53;;;;;;;16.70;14.40;;;20.60;41.00;;;;;;5021925;28;20033;-62
2021/04/24 10:06:33;;;;;;;15.02;13.52;;;20.50;37.40;;;;;;5052801;28;20083;-62
2021/04/24 10:09:17;;;;;;;17.98;14.00;;;20.70;37.50;;;;;;5049272;28;20087;-61
2021/04/24 10:12:05;;;;;;;15.82;12.07;;;20.80;37.00;;;;;;5035039;28;20033;-63
2021/04/24 10:14:37;;;;;;;14.98;11.75;;;20.80;35.60;;;;;;5050359;28;20494;-62
2021/04/24 10:17:05;;;;;;;14.18;11.38;;;20.80;36.00;;;;;;5050268;28;20521;-60
2021/04/24 10:19:32;;;;;;;11.95;10.13;;;20.90;35.60;;;;;;5056273;28;20032;-61
2021/04/24 10:21:58;;;;;;;13.60;12.23;;;21.00;34.40;;;;;;5069605;28;20036;-61
2021/04/24 10:24:26;;;;;;;16.58;12.18;;;21.10;34.80;;;;;;5053538;28;20033;-61
2021/04/24 10:26:53;;;;;;;15.38;12.77;;;21.10;34.00;;;;;;5054288;28;20076;-60
2021/04/24 10:29:20;;;;;;;13.25;11.77;;;21.10;34.90;;;;;;5050699;28;20040;-61
2021/04/24 10:31:46;;;;;;;15.18;13.35;;;21.20;34.70;;;;;;5053282;28;20045;-61
2021/04/24 10:34:13;;;;;;;12.73;11.43;;;21.30;34.70;;;;;;5049232;28;20041;-62
2021/04/24 10:36:39;;;;;;;11.77;10.57;;;21.30;33.80;;;;;;5052812;28;20394;-61
2021/04/24 10:39:11;;;;;;;15.40;10.82;;;21.30;33.60;;;;;;5057374;28;20037;-61
2021/04/24 10:41:39;;;;;;;14.02;10.90;;;21.40;33.70;;;;;;5050670;28;20037;-61
2021/04/24 10:44:07;;;;;;;10.50;9.13;;;21.40;33.40;;;;;;5051390;28;20040;-61
2021/04/24 10:46:45;;;;;;;9.40;8.23;;;21.50;32.40;;;;;;5058448;28;20040;-61
2021/04/24 10:49:15;;;;;;;12.77;11.35;;;21.70;31.20;;;;;;5054454;28;20086;-62
2021/04/24 10:52:18;;;;;;;14.20;12.60;;;22.00;31.90;;;;;;5054251;28;20064;-62
2021/04/24 10:55:12;;;;;;;15.85;13.80;;;21.90;32.10;;;;;;5005278;28;20502;-62
2021/04/24 10:57:41;;;;;;;13.35;11.63;;;21.70;32.20;;;;;;5049123;28;20064;-62
2021/04/24 11:00:10;;;;;;;12.73;11.43;;;21.80;32.10;;;;;;5050307;28;20093;-61
2021/04/24 11:02:46;;;;;;;14.10;11.18;;;21.90;31.70;;;;;;5049136;28;20061;-62
2021/04/24 11:05:29;;;;;;;10.50;9.30;;;22.00;31.60;;;;;;5067633;28;20041;-62
2021/04/24 11:08:22;;;;;;;11.70;8.82;;;21.90;30.70;;;;;;4988169;28;20503;-62
2021/04/24 11:11:08;;;;;;;11.95;10.20;;;22.00;30.00;;;;;;5011191;28;20060;-62
2021/04/24 11:13:35;;;;;;;11.88;10.23;;;22.20;29.40;;;;;;5062502;28;20086;-60
2021/04/24 11:16:03;;;;;;;15.93;13.25;;;22.60;30.40;;;;;;5065386;28;20037;-60
2021/04/24 11:18:30;;;;;;;12.57;11.23;;;22.40;29.90;;;;;;5049793;28;20072;-60
2021/04/24 11:21:02;;;;;;;12.50;10.27;;;22.70;29.60;;;;;;5051991;28;20048;-61
2021/04/24 11:23:38;;;;;;;12.88;11.57;;;22.60;29.40;;;;;;5061246;28;20043;-60
2021/04/24 11:26:09;;;;;;;15.13;11.43;;;22.70;29.50;;;;;;5042444;28;20025;-60
2021/04/24 11:29:07;;;;;;;13.73;11.65;;;23.10;28.60;;;;;;5050875;28;20040;-60
2021/04/24 11:31:55;;;;;;;19.70;11.40;;;23.50;28.10;;;;;;5028054;28;20045;-62
2021/04/24 11:34:29;;;;;;;11.95;9.63;;;28.20;23.60;;;;;;5019689;28;20029;-61
2021/04/24 11:37:27;;;;;;;12.77;10.63;;;28.90;23.90;;;;;;5051177;28;20035;-63
2021/04/24 11:40:07;;;;;;;14.18;12.68;;;28.80;22.90;;;;;;5018025;28;20040;-64
2021/04/24 11:42:49;;;;;;;14.15;12.75;;;28.70;21.90;;;;;;5026212;28;20037;-60
2021/04/24 11:45:36;;;;;;;16.05;14.45;;;28.60;22.90;;;;;;5034081;28;20135;-61
2021/04/24 11:48:02;;;;;;;22.88;20.45;;;28.60;23.00;;;;;;5039474;28;20095;-59
2021/04/24 11:50:40;;;;;;;18.05;16.25;;;28.20;23.70;;;;;;5050425;28;20044;-59
2021/04/24 11:53:08;;;;;;;21.75;18.90;;;28.00;23.30;;;;;;5052367;28;20063;-61
2021/04/24 11:55:35;;;;;;;18.15;16.40;;;28.00;24.30;;;;;;5049305;28;20056;-60
2021/04/24 11:58:08;;;;;;;16.67;15.02;;;28.30;23.20;;;;;;5057972;28;20431;-61
2021/04/24 12:00:35;;;;;;;20.02;17.67;;;29.10;22.60;;;;;;5053080;28;20037;-61
2021/04/24 12:03:01;;;;;;;17.00;15.18;;;29.00;22.50;;;;;;5044074;28;20064;-61
2021/04/24 12:05:27;;;;;;;17.10;15.50;;;30.40;21.90;;;;;;5046275;28;20502;-62
2021/04/24 12:07:53;;;;;;;17.42;15.77;;;30.40;22.00;;;;;;5050885;28;20517;-62
2021/04/24 12:10:26;;;;;;;16.10;13.20;;;29.00;21.70;;;;;;5053636;28;20438;-61
2021/04/24 12:12:52;;;;;;;14.13;12.80;;;29.10;22.00;;;;;;5052387;28;20053;-63
2021/04/24 12:15:27;;;;;;;14.65;12.18;;;29.20;21.90;;;;;;5039569;28;20554;-61
2021/04/24 12:17:58;;;;;;;16.08;14.43;;;28.80;21.70;;;;;;5057695;28;20028;-63
2021/04/24 12:20:31;;;;;;;16.63;14.93;;;28.60;22.00;;;;;;5058317;28;20040;-61
2021/04/24 12:22:59;;;;;;;16.67;15.07;;;28.40;21.10;;;;;;5047871;28;20037;-61
2021/04/24 12:25:27;;;;;;;16.85;15.30;;;28.70;21.50;;;;;;5038480;28;20058;-61
2021/04/24 12:27:54;;;;;;;16.58;14.95;;;29.60;21.20;;;;;;5048048;28;20493;-60
2021/04/24 12:30:38;;;;;;;16.42;14.77;;;30.10;21.50;;;;;;5048992;28;20066;-60
2021/04/24 12:33:12;;;;;;;15.70;14.10;;;29.60;20.30;;;;;;5048633;28;20041;-61
2021/04/24 12:35:47;;;;;;;16.58;14.45;;;28.50;21.60;;;;;;5053658;28;20037;-61
2021/04/24 12:38:34;;;;;;;16.00;14.43;;;28.50;21.70;;;;;;5043810;28;20048;-62
2021/04/24 12:41:02;;;;;;;19.60;14.20;;;28.10;21.00;;;;;;5048763;28;20053;-59
2021/04/24 12:43:36;;;;;;;18.35;15.75;;;28.50;22.00;;;;;;5048678;28;20433;-59
2021/04/24 12:46:05;;;;;;;17.25;15.45;;;29.10;20.70;;;;;;5055690;28;20056;-57
2021/04/24 12:48:42;;;;;;;17.05;15.25;;;29.90;20.30;;;;;;5054226;28;20062;-60
2021/04/24 12:51:16;;;;;;;18.27;16.48;;;31.20;20.00;;;;;;5038783;28;20041;-61